sensor_id;sensor_type;location;lat;lon;timestamp;P1;durP1;ratioP1;P2;durP2;ratioP2
7657;SDS011;8462;53.156;8.220;2022-09-09T00:02:18;19.67;;;12.23;;
7657;SDS011;8462;53.156;8.220;2022-09-09T00:04:47;17.40;;;10.90;;
7657;SDS011;8462;53.156;8.220;2022-09-09T00:07:25;19.87;;;12.17;;
7657;SDS011;8462;53.156;8.220;2022-09-09T00:10:04;19.37;;;11.73;;
7657;SDS011;8462;53.156;8.220;2022-09-09T00:12:42;17.13;;;10.83;;
7657;SDS011;8462;53.156;8.220;2022-09-09T00:15:18;15.83;;;10.73;;
7657;SDS011;8462;53.156;8.220;2022-09-09T00:17:47;21.07;;;11.37;;
7657;SDS011;8462;53.156;8.220;2022-09-09T00:20:28;18.20;;;12.63;;
7657;SDS011;8462;53.156;8.220;2022-09-09T00:23:00;18.83;;;11.13;;
7657;SDS011;8462;53.156;8.220;2022-09-09T00:25:36;17.00;;;11.33;;
7657;SDS011;8462;53.156;8.220;2022-09-09T00:28:17;17.63;;;12.00;;
7657;SDS011;8462;53.156;8.220;2022-09-09T00:30:46;19.67;;;11.33;;
7657;SDS011;8462;53.156;8.220;2022-09-09T00:33:15;16.83;;;11.57;;
7657;SDS011;8462;53.156;8.220;2022-09-09T00:35:48;15.43;;;10.87;;
7657;SDS011;8462;53.156;8.220;2022-09-09T00:38:17;18.73;;;12.73;;
7657;SDS011;8462;53.156;8.220;2022-09-09T00:40:50;18.13;;;11.03;;
7657;SDS011;8462;53.156;8.220;2022-09-09T00:43:24;16.97;;;12.03;;
7657;SDS011;8462;53.156;8.220;2022-09-09T00:46:09;17.03;;;10.87;;
7657;SDS011;8462;53.156;8.220;2022-09-09T00:48:52;21.73;;;13.27;;
7657;SDS011;8462;53.156;8.220;2022-09-09T00:51:29;18.17;;;12.43;;
7657;SDS011;8462;53.156;8.220;2022-09-09T00:54:20;16.83;;;10.67;;
7657;SDS011;8462;53.156;8.220;2022-09-09T00:57:01;17.87;;;12.33;;
7657;SDS011;8462;53.156;8.220;2022-09-09T00:59:39;17.50;;;10.60;;
7657;SDS011;8462;53.156;8.220;2022-09-09T01:02:16;19.53;;;11.67;;
7657;SDS011;8462;53.156;8.220;2022-09-09T01:04:56;17.37;;;11.17;;
7657;SDS011;8462;53.156;8.220;2022-09-09T01:07:31;17.67;;;11.73;;
7657;SDS011;8462;53.156;8.220;2022-09-09T01:09:59;16.10;;;11.37;;
7657;SDS011;8462;53.156;8.220;2022-09-09T01:12:37;20.07;;;11.87;;
7657;SDS011;8462;53.156;8.220;2022-09-09T01:15:17;18.07;;;12.13;;
7657;SDS011;8462;53.156;8.220;2022-09-09T01:17:53;17.20;;;11.60;;
7657;SDS011;8462;53.156;8.220;2022-09-09T01:20:28;16.53;;;11.37;;
7657;SDS011;8462;53.156;8.220;2022-09-09T01:23:14;18.00;;;11.77;;
7657;SDS011;8462;53.156;8.220;2022-09-09T01:26:23;15.77;;;11.67;;
7657;SDS011;8462;53.156;8.220;2022-09-09T01:28:55;16.17;;;11.43;;
7657;SDS011;8462;53.156;8.220;2022-09-09T01:31:31;15.30;;;10.43;;
7657;SDS011;8462;53.156;8.220;2022-09-09T01:34:04;17.40;;;10.90;;
7657;SDS011;8462;53.156;8.220;2022-09-09T01:36:38;17.33;;;11.23;;
7657;SDS011;8462;53.156;8.220;2022-09-09T01:39:10;16.37;;;10.50;;
7657;SDS011;8462;53.156;8.220;2022-09-09T01:41:40;17.30;;;10.30;;
7657;SDS011;8462;53.156;8.220;2022-09-09T01:44:10;17.30;;;12.10;;
7657;SDS011;8462;53.156;8.220;2022-09-09T01:46:42;15.27;;;11.10;;
7657;SDS011;8462;53.156;8.220;2022-09-09T01:49:20;15.73;;;10.40;;
7657;SDS011;8462;53.156;8.220;2022-09-09T01:51:49;17.30;;;11.87;;
7657;SDS011;8462;53.156;8.220;2022-09-09T01:54:22;15.07;;;10.47;;
7657;SDS011;8462;53.156;8.220;2022-09-09T01:56:57;16.03;;;10.30;;
7657;SDS011;8462;53.156;8.220;2022-09-09T01:59:37;18.70;;;11.80;;
7657;SDS011;8462;53.156;8.220;2022-09-09T02:02:16;13.93;;;10.67;;
7657;SDS011;8462;53.156;8.220;2022-09-09T02:05:16;14.83;;;10.37;;
7657;SDS011;8462;53.156;8.220;2022-09-09T02:07:56;17.70;;;11.80;;
7657;SDS011;8462;53.156;8.220;2022-09-09T02:11:06;15.87;;;10.50;;
7657;SDS011;8462;53.156;8.220;2022-09-09T02:14:01;15.17;;;11.00;;
7657;SDS011;8462;53.156;8.220;2022-09-09T02:17:22;17.80;;;11.13;;
7657;SDS011;8462;53.156;8.220;2022-09-09T02:23:36;16.37;;;10.53;;
7657;SDS011;8462;53.156;8.220;2022-09-09T02:26:10;17.27;;;10.43;;
7657;SDS011;8462;53.156;8.220;2022-09-09T02:28:45;17.83;;;10.30;;
7657;SDS011;8462;53.156;8.220;2022-09-09T02:31:24;13.80;;;10.50;;
7657;SDS011;8462;53.156;8.220;2022-09-09T02:37:00;14.00;;;9.87;;
7657;SDS011;8462;53.156;8.220;2022-09-09T02:39:39;14.13;;;10.40;;
7657;SDS011;8462;53.156;8.220;2022-09-09T02:42:12;14.27;;;10.13;;
7657;SDS011;8462;53.156;8.220;2022-09-09T02:44:41;15.50;;;10.50;;
7657;SDS011;8462;53.156;8.220;2022-09-09T02:47:14;15.90;;;10.90;;
7657;SDS011;8462;53.156;8.220;2022-09-09T02:49:51;16.13;;;10.97;;
7657;SDS011;8462;53.156;8.220;2022-09-09T02:52:30;13.70;;;10.33;;
7657;SDS011;8462;53.156;8.220;2022-09-09T02:55:31;15.90;;;9.97;;
7657;SDS011;8462;53.156;8.220;2022-09-09T03:01:05;13.67;;;9.23;;
7657;SDS011;8462;53.156;8.220;2022-09-09T03:04:23;14.87;;;10.23;;
7657;SDS011;8462;53.156;8.220;2022-09-09T03:09:57;16.23;;;9.37;;
7657;SDS011;8462;53.156;8.220;2022-09-09T03:12:51;14.40;;;9.27;;
7657;SDS011;8462;53.156;8.220;2022-09-09T03:15:18;14.37;;;9.47;;
7657;SDS011;8462;53.156;8.220;2022-09-09T03:17:57;14.77;;;9.77;;
7657;SDS011;8462;53.156;8.220;2022-09-09T03:23:54;13.23;;;9.23;;
7657;SDS011;8462;53.156;8.220;2022-09-09T03:26:22;10.27;;;8.67;;
7657;SDS011;8462;53.156;8.220;2022-09-09T03:28:49;10.33;;;7.90;;
7657;SDS011;8462;53.156;8.220;2022-09-09T03:31:20;11.80;;;8.87;;
7657;SDS011;8462;53.156;8.220;2022-09-09T03:33:47;11.60;;;8.53;;
7657;SDS011;8462;53.156;8.220;2022-09-09T03:36:17;12.80;;;8.23;;
7657;SDS011;8462;53.156;8.220;2022-09-09T03:38:44;12.57;;;8.37;;
7657;SDS011;8462;53.156;8.220;2022-09-09T03:41:11;13.97;;;8.93;;
7657;SDS011;8462;53.156;8.220;2022-09-09T03:43:38;13.70;;;8.33;;
7657;SDS011;8462;53.156;8.220;2022-09-09T03:46:07;12.50;;;8.73;;
7657;SDS011;8462;53.156;8.220;2022-09-09T03:48:34;13.20;;;8.33;;
7657;SDS011;8462;53.156;8.220;2022-09-09T03:51:02;14.07;;;8.43;;
7657;SDS011;8462;53.156;8.220;2022-09-09T03:53:32;11.53;;;8.17;;
7657;SDS011;8462;53.156;8.220;2022-09-09T03:56:06;10.03;;;7.70;;
7657;SDS011;8462;53.156;8.220;2022-09-09T03:58:35;11.27;;;8.33;;
7657;SDS011;8462;53.156;8.220;2022-09-09T04:01:06;12.10;;;8.10;;
7657;SDS011;8462;53.156;8.220;2022-09-09T04:03:35;16.00;;;9.03;;
7657;SDS011;8462;53.156;8.220;2022-09-09T04:06:03;11.90;;;8.10;;
7657;SDS011;8462;53.156;8.220;2022-09-09T04:08:33;10.53;;;8.07;;
7657;SDS011;8462;53.156;8.220;2022-09-09T04:11:01;11.57;;;8.23;;
7657;SDS011;8462;53.156;8.220;2022-09-09T04:13:32;11.50;;;8.37;;
7657;SDS011;8462;53.156;8.220;2022-09-09T04:16:03;12.50;;;8.17;;
7657;SDS011;8462;53.156;8.220;2022-09-09T04:18:41;12.27;;;7.93;;
7657;SDS011;8462;53.156;8.220;2022-09-09T04:21:08;10.73;;;7.47;;
7657;SDS011;8462;53.156;8.220;2022-09-09T04:23:38;12.43;;;8.07;;
7657;SDS011;8462;53.156;8.220;2022-09-09T04:26:06;13.77;;;8.50;;
7657;SDS011;8462;53.156;8.220;2022-09-09T04:28:35;11.00;;;7.67;;
7657;SDS011;8462;53.156;8.220;2022-09-09T04:31:06;11.17;;;8.27;;
7657;SDS011;8462;53.156;8.220;2022-09-09T04:33:37;11.63;;;7.73;;
7657;SDS011;8462;53.156;8.220;2022-09-09T04:36:05;9.93;;;7.13;;
7657;SDS011;8462;53.156;8.220;2022-09-09T04:38:33;11.57;;;7.13;;
7657;SDS011;8462;53.156;8.220;2022-09-09T04:41:02;10.47;;;7.87;;
7657;SDS011;8462;53.156;8.220;2022-09-09T04:43:38;11.13;;;7.63;;
7657;SDS011;8462;53.156;8.220;2022-09-09T04:46:08;11.43;;;7.40;;
7657;SDS011;8462;53.156;8.220;2022-09-09T04:48:36;9.17;;;7.27;;
7657;SDS011;8462;53.156;8.220;2022-09-09T04:51:06;8.00;;;6.57;;
7657;SDS011;8462;53.156;8.220;2022-09-09T04:53:35;9.90;;;7.67;;
7657;SDS011;8462;53.156;8.220;2022-09-09T04:56:05;10.07;;;7.30;;
7657;SDS011;8462;53.156;8.220;2022-09-09T04:58:39;11.67;;;7.30;;
7657;SDS011;8462;53.156;8.220;2022-09-09T05:01:09;16.07;;;9.63;;
7657;SDS011;8462;53.156;8.220;2022-09-09T05:03:46;12.27;;;7.43;;
7657;SDS011;8462;53.156;8.220;2022-09-09T05:06:17;10.90;;;6.67;;
7657;SDS011;8462;53.156;8.220;2022-09-09T05:08:57;9.97;;;7.17;;
7657;SDS011;8462;53.156;8.220;2022-09-09T05:11:30;12.30;;;7.30;;
7657;SDS011;8462;53.156;8.220;2022-09-09T05:14:09;11.50;;;6.90;;
7657;SDS011;8462;53.156;8.220;2022-09-09T05:16:44;12.47;;;7.93;;
7657;SDS011;8462;53.156;8.220;2022-09-09T05:19:12;12.73;;;7.10;;
7657;SDS011;8462;53.156;8.220;2022-09-09T05:21:45;11.17;;;7.30;;
7657;SDS011;8462;53.156;8.220;2022-09-09T05:24:15;8.93;;;6.47;;
7657;SDS011;8462;53.156;8.220;2022-09-09T05:26:47;10.97;;;8.20;;
7657;SDS011;8462;53.156;8.220;2022-09-09T05:29:15;9.87;;;7.37;;
7657;SDS011;8462;53.156;8.220;2022-09-09T05:31:45;8.13;;;6.47;;
7657;SDS011;8462;53.156;8.220;2022-09-09T05:34:14;9.77;;;6.63;;
7657;SDS011;8462;53.156;8.220;2022-09-09T05:36:41;9.33;;;5.60;;
7657;SDS011;8462;53.156;8.220;2022-09-09T05:39:09;6.53;;;5.53;;
7657;SDS011;8462;53.156;8.220;2022-09-09T05:41:44;7.97;;;5.70;;
7657;SDS011;8462;53.156;8.220;2022-09-09T05:44:13;6.60;;;5.40;;
7657;SDS011;8462;53.156;8.220;2022-09-09T05:46:40;8.67;;;5.70;;
7657;SDS011;8462;53.156;8.220;2022-09-09T05:49:08;6.57;;;4.97;;
7657;SDS011;8462;53.156;8.220;2022-09-09T05:51:35;6.93;;;4.90;;
7657;SDS011;8462;53.156;8.220;2022-09-09T05:54:07;10.13;;;5.03;;
7657;SDS011;8462;53.156;8.220;2022-09-09T05:56:48;6.10;;;3.97;;
7657;SDS011;8462;53.156;8.220;2022-09-09T05:59:16;7.17;;;4.27;;
7657;SDS011;8462;53.156;8.220;2022-09-09T06:01:43;7.93;;;4.60;;
7657;SDS011;8462;53.156;8.220;2022-09-09T06:04:18;5.30;;;3.80;;
7657;SDS011;8462;53.156;8.220;2022-09-09T06:06:56;5.43;;;3.60;;
7657;SDS011;8462;53.156;8.220;2022-09-09T06:09:32;3.80;;;3.40;;
7657;SDS011;8462;53.156;8.220;2022-09-09T06:12:06;7.17;;;3.90;;
7657;SDS011;8462;53.156;8.220;2022-09-09T06:14:35;5.67;;;4.10;;
7657;SDS011;8462;53.156;8.220;2022-09-09T06:17:02;6.50;;;3.80;;
7657;SDS011;8462;53.156;8.220;2022-09-09T06:19:37;5.83;;;3.80;;
7657;SDS011;8462;53.156;8.220;2022-09-09T06:22:04;6.80;;;5.10;;
7657;SDS011;8462;53.156;8.220;2022-09-09T06:24:34;4.60;;;3.90;;
7657;SDS011;8462;53.156;8.220;2022-09-09T06:27:02;9.93;;;3.83;;
7657;SDS011;8462;53.156;8.220;2022-09-09T06:29:34;4.63;;;4.00;;
7657;SDS011;8462;53.156;8.220;2022-09-09T06:32:02;5.97;;;5.33;;
7657;SDS011;8462;53.156;8.220;2022-09-09T06:34:34;10.37;;;4.73;;
7657;SDS011;8462;53.156;8.220;2022-09-09T06:37:01;5.43;;;3.97;;
7657;SDS011;8462;53.156;8.220;2022-09-09T06:39:42;5.63;;;3.37;;
7657;SDS011;8462;53.156;8.220;2022-09-09T06:42:09;6.10;;;4.10;;
7657;SDS011;8462;53.156;8.220;2022-09-09T06:44:50;7.27;;;3.90;;
7657;SDS011;8462;53.156;8.220;2022-09-09T06:47:31;6.10;;;4.40;;
7657;SDS011;8462;53.156;8.220;2022-09-09T06:49:58;6.33;;;4.27;;
7657;SDS011;8462;53.156;8.220;2022-09-09T06:52:25;5.20;;;4.30;;
7657;SDS011;8462;53.156;8.220;2022-09-09T06:54:55;7.73;;;4.67;;
7657;SDS011;8462;53.156;8.220;2022-09-09T06:57:30;5.97;;;4.67;;
7657;SDS011;8462;53.156;8.220;2022-09-09T07:00:03;8.33;;;4.27;;
7657;SDS011;8462;53.156;8.220;2022-09-09T07:02:35;6.00;;;4.10;;
7657;SDS011;8462;53.156;8.220;2022-09-09T07:05:05;7.20;;;5.03;;
7657;SDS011;8462;53.156;8.220;2022-09-09T07:07:35;7.33;;;4.50;;
7657;SDS011;8462;53.156;8.220;2022-09-09T07:10:03;4.90;;;4.10;;
7657;SDS011;8462;53.156;8.220;2022-09-09T07:13:05;4.80;;;3.63;;
7657;SDS011;8462;53.156;8.220;2022-09-09T07:15:44;6.23;;;3.53;;
7657;SDS011;8462;53.156;8.220;2022-09-09T07:21:11;3.67;;;3.08;;
7657;SDS011;8462;53.156;8.220;2022-09-09T07:24:35;4.43;;;3.38;;
7657;SDS011;8462;53.156;8.220;2022-09-09T07:27:05;7.18;;;2.90;;
7657;SDS011;8462;53.156;8.220;2022-09-09T07:29:36;5.97;;;3.60;;
7657;SDS011;8462;53.156;8.220;2022-09-09T07:35:03;8.55;;;4.30;;
7657;SDS011;8462;53.156;8.220;2022-09-09T07:37:41;5.20;;;3.70;;
7657;SDS011;8462;53.156;8.220;2022-09-09T07:40:10;5.70;;;3.88;;
7657;SDS011;8462;53.156;8.220;2022-09-09T07:43:03;4.85;;;4.20;;
7657;SDS011;8462;53.156;8.220;2022-09-09T07:45:56;4.85;;;4.03;;
7657;SDS011;8462;53.156;8.220;2022-09-09T07:52:00;8.13;;;5.50;;
7657;SDS011;8462;53.156;8.220;2022-09-09T07:54:30;6.97;;;4.70;;
7657;SDS011;8462;53.156;8.220;2022-09-09T07:57:07;7.23;;;4.67;;
7657;SDS011;8462;53.156;8.220;2022-09-09T07:59:36;5.60;;;4.17;;
7657;SDS011;8462;53.156;8.220;2022-09-09T08:02:04;5.90;;;4.60;;
7657;SDS011;8462;53.156;8.220;2022-09-09T08:04:36;6.97;;;4.47;;
7657;SDS011;8462;53.156;8.220;2022-09-09T08:07:04;5.87;;;4.70;;
7657;SDS011;8462;53.156;8.220;2022-09-09T08:09:50;9.40;;;5.37;;
7657;SDS011;8462;53.156;8.220;2022-09-09T08:12:23;6.57;;;4.90;;
7657;SDS011;8462;53.156;8.220;2022-09-09T08:14:50;5.60;;;4.40;;
7657;SDS011;8462;53.156;8.220;2022-09-09T08:17:22;5.93;;;4.53;;
7657;SDS011;8462;53.156;8.220;2022-09-09T08:19:52;5.93;;;4.77;;
7657;SDS011;8462;53.156;8.220;2022-09-09T08:22:23;4.40;;;4.00;;
7657;SDS011;8462;53.156;8.220;2022-09-09T08:24:54;5.83;;;4.37;;
7657;SDS011;8462;53.156;8.220;2022-09-09T08:27:26;7.17;;;5.40;;
7657;SDS011;8462;53.156;8.220;2022-09-09T08:29:54;8.97;;;5.93;;
7657;SDS011;8462;53.156;8.220;2022-09-09T08:32:22;6.63;;;4.67;;
7657;SDS011;8462;53.156;8.220;2022-09-09T08:34:49;8.50;;;6.73;;
7657;SDS011;8462;53.156;8.220;2022-09-09T08:37:21;5.93;;;4.30;;
7657;SDS011;8462;53.156;8.220;2022-09-09T08:39:48;5.97;;;4.37;;
7657;SDS011;8462;53.156;8.220;2022-09-09T08:42:29;7.57;;;5.50;;
7657;SDS011;8462;53.156;8.220;2022-09-09T08:45:14;5.30;;;4.23;;
7657;SDS011;8462;53.156;8.220;2022-09-09T08:47:50;5.43;;;4.07;;
7657;SDS011;8462;53.156;8.220;2022-09-09T08:50:24;5.73;;;5.13;;
7657;SDS011;8462;53.156;8.220;2022-09-09T08:53:01;8.10;;;3.60;;
7657;SDS011;8462;53.156;8.220;2022-09-09T08:55:35;7.50;;;3.53;;
7657;SDS011;8462;53.156;8.220;2022-09-09T08:58:19;5.73;;;3.17;;
7657;SDS011;8462;53.156;8.220;2022-09-09T09:01:05;4.97;;;3.60;;
7657;SDS011;8462;53.156;8.220;2022-09-09T09:03:50;7.37;;;3.60;;
7657;SDS011;8462;53.156;8.220;2022-09-09T09:06:26;6.23;;;2.83;;
7657;SDS011;8462;53.156;8.220;2022-09-09T09:09:07;5.87;;;2.83;;
7657;SDS011;8462;53.156;8.220;2022-09-09T09:11:40;3.17;;;2.47;;
7657;SDS011;8462;53.156;8.220;2022-09-09T09:14:14;4.43;;;2.73;;
7657;SDS011;8462;53.156;8.220;2022-09-09T09:16:48;5.57;;;3.20;;
7657;SDS011;8462;53.156;8.220;2022-09-09T09:19:19;5.50;;;2.83;;
7657;SDS011;8462;53.156;8.220;2022-09-09T09:21:50;4.63;;;2.57;;
7657;SDS011;8462;53.156;8.220;2022-09-09T09:24:23;3.57;;;2.47;;
7657;SDS011;8462;53.156;8.220;2022-09-09T09:26:55;5.63;;;2.80;;
7657;SDS011;8462;53.156;8.220;2022-09-09T09:29:24;3.63;;;2.90;;
7657;SDS011;8462;53.156;8.220;2022-09-09T09:31:55;3.73;;;2.83;;
7657;SDS011;8462;53.156;8.220;2022-09-09T09:34:54;5.57;;;2.87;;
7657;SDS011;8462;53.156;8.220;2022-09-09T09:37:25;4.87;;;2.73;;
7657;SDS011;8462;53.156;8.220;2022-09-09T09:40:07;6.10;;;3.10;;
7657;SDS011;8462;53.156;8.220;2022-09-09T09:42:35;2.93;;;2.63;;
7657;SDS011;8462;53.156;8.220;2022-09-09T09:45:07;3.43;;;2.70;;
7657;SDS011;8462;53.156;8.220;2022-09-09T09:47:41;3.77;;;2.70;;
7657;SDS011;8462;53.156;8.220;2022-09-09T09:50:17;6.07;;;2.50;;
7657;SDS011;8462;53.156;8.220;2022-09-09T09:52:53;5.53;;;3.07;;
7657;SDS011;8462;53.156;8.220;2022-09-09T09:55:24;4.23;;;2.50;;
7657;SDS011;8462;53.156;8.220;2022-09-09T09:57:52;5.23;;;2.90;;
7657;SDS011;8462;53.156;8.220;2022-09-09T10:00:22;3.37;;;2.50;;
7657;SDS011;8462;53.156;8.220;2022-09-09T10:03:01;3.70;;;2.33;;
7657;SDS011;8462;53.156;8.220;2022-09-09T10:05:32;5.70;;;3.00;;
7657;SDS011;8462;53.156;8.220;2022-09-09T10:08:10;5.17;;;2.97;;
7657;SDS011;8462;53.156;8.220;2022-09-09T10:10:50;4.77;;;3.13;;
7657;SDS011;8462;53.156;8.220;2022-09-09T10:13:29;3.13;;;2.83;;
7657;SDS011;8462;53.156;8.220;2022-09-09T10:16:08;4.10;;;2.53;;
7657;SDS011;8462;53.156;8.220;2022-09-09T10:18:49;5.10;;;2.47;;
7657;SDS011;8462;53.156;8.220;2022-09-09T10:21:36;4.60;;;2.33;;
7657;SDS011;8462;53.156;8.220;2022-09-09T10:24:31;4.50;;;3.00;;
7657;SDS011;8462;53.156;8.220;2022-09-09T10:27:15;5.93;;;2.80;;
7657;SDS011;8462;53.156;8.220;2022-09-09T10:29:51;5.63;;;2.73;;
7657;SDS011;8462;53.156;8.220;2022-09-09T10:32:40;4.50;;;2.30;;
7657;SDS011;8462;53.156;8.220;2022-09-09T10:35:12;4.47;;;2.30;;
7657;SDS011;8462;53.156;8.220;2022-09-09T10:40:43;5.40;;;1.90;;
7657;SDS011;8462;53.156;8.220;2022-09-09T10:43:30;3.50;;;2.55;;
7657;SDS011;8462;53.156;8.220;2022-09-09T10:46:20;4.70;;;2.83;;
7657;SDS011;8462;53.156;8.220;2022-09-09T10:48:59;4.20;;;2.60;;
7657;SDS011;8462;53.156;8.220;2022-09-09T10:51:36;5.73;;;2.93;;
7657;SDS011;8462;53.156;8.220;2022-09-09T10:54:16;5.00;;;2.77;;
7657;SDS011;8462;53.156;8.220;2022-09-09T10:56:59;4.90;;;3.00;;
7657;SDS011;8462;53.156;8.220;2022-09-09T10:59:33;5.37;;;2.83;;
7657;SDS011;8462;53.156;8.220;2022-09-09T11:02:05;4.83;;;2.50;;
7657;SDS011;8462;53.156;8.220;2022-09-09T11:04:41;3.13;;;2.03;;
7657;SDS011;8462;53.156;8.220;2022-09-09T11:07:12;4.43;;;2.40;;
7657;SDS011;8462;53.156;8.220;2022-09-09T11:09:46;4.10;;;2.20;;
7657;SDS011;8462;53.156;8.220;2022-09-09T11:12:20;4.83;;;2.40;;
7657;SDS011;8462;53.156;8.220;2022-09-09T11:14:54;5.67;;;2.80;;
7657;SDS011;8462;53.156;8.220;2022-09-09T11:17:26;5.47;;;2.53;;
7657;SDS011;8462;53.156;8.220;2022-09-09T11:20:01;3.97;;;2.27;;
7657;SDS011;8462;53.156;8.220;2022-09-09T11:22:32;5.97;;;2.70;;
7657;SDS011;8462;53.156;8.220;2022-09-09T11:25:05;3.37;;;2.67;;
7657;SDS011;8462;53.156;8.220;2022-09-09T11:27:42;3.43;;;2.63;;
7657;SDS011;8462;53.156;8.220;2022-09-09T11:30:21;4.30;;;2.40;;
7657;SDS011;8462;53.156;8.220;2022-09-09T11:32:58;5.43;;;2.70;;
7657;SDS011;8462;53.156;8.220;2022-09-09T11:35:42;2.85;;;2.25;;
7657;SDS011;8462;53.156;8.220;2022-09-09T11:38:21;7.60;;;2.87;;
7657;SDS011;8462;53.156;8.220;2022-09-09T11:40:57;4.53;;;3.07;;
7657;SDS011;8462;53.156;8.220;2022-09-09T11:43:27;6.03;;;3.20;;
7657;SDS011;8462;53.156;8.220;2022-09-09T11:45:58;7.37;;;3.03;;
7657;SDS011;8462;53.156;8.220;2022-09-09T11:48:34;5.93;;;3.50;;
7657;SDS011;8462;53.156;8.220;2022-09-09T11:51:04;4.67;;;2.90;;
7657;SDS011;8462;53.156;8.220;2022-09-09T11:53:32;5.33;;;3.23;;
7657;SDS011;8462;53.156;8.220;2022-09-09T11:56:05;7.93;;;3.40;;
7657;SDS011;8462;53.156;8.220;2022-09-09T11:58:39;5.30;;;3.60;;
7657;SDS011;8462;53.156;8.220;2022-09-09T12:04:13;6.70;;;3.90;;
7657;SDS011;8462;53.156;8.220;2022-09-09T12:06:54;10.93;;;5.97;;
7657;SDS011;8462;53.156;8.220;2022-09-09T12:09:40;7.47;;;5.43;;
7657;SDS011;8462;53.156;8.220;2022-09-09T12:12:26;5.27;;;4.47;;
7657;SDS011;8462;53.156;8.220;2022-09-09T12:14:59;8.13;;;3.90;;
7657;SDS011;8462;53.156;8.220;2022-09-09T12:17:44;6.30;;;4.13;;
7657;SDS011;8462;53.156;8.220;2022-09-09T12:20:14;8.37;;;4.40;;
7657;SDS011;8462;53.156;8.220;2022-09-09T12:22:46;4.40;;;3.93;;
7657;SDS011;8462;53.156;8.220;2022-09-09T12:25:23;5.10;;;3.90;;
7657;SDS011;8462;53.156;8.220;2022-09-09T12:28:02;5.53;;;3.80;;
7657;SDS011;8462;53.156;8.220;2022-09-09T12:30:39;5.57;;;3.93;;
7657;SDS011;8462;53.156;8.220;2022-09-09T12:33:12;12.27;;;7.13;;
7657;SDS011;8462;53.156;8.220;2022-09-09T12:35:43;6.17;;;4.23;;
7657;SDS011;8462;53.156;8.220;2022-09-09T12:38:13;6.53;;;3.80;;
7657;SDS011;8462;53.156;8.220;2022-09-09T12:40:53;7.17;;;4.47;;
7657;SDS011;8462;53.156;8.220;2022-09-09T12:43:22;4.60;;;3.90;;
7657;SDS011;8462;53.156;8.220;2022-09-09T12:45:50;8.17;;;5.07;;
7657;SDS011;8462;53.156;8.220;2022-09-09T12:48:25;6.63;;;4.13;;
7657;SDS011;8462;53.156;8.220;2022-09-09T12:50:57;5.10;;;4.03;;
7657;SDS011;8462;53.156;8.220;2022-09-09T12:53:26;4.50;;;4.10;;
7657;SDS011;8462;53.156;8.220;2022-09-09T12:55:57;8.27;;;4.50;;
7657;SDS011;8462;53.156;8.220;2022-09-09T12:58:26;6.63;;;4.87;;
7657;SDS011;8462;53.156;8.220;2022-09-09T13:01:00;7.20;;;4.63;;
7657;SDS011;8462;53.156;8.220;2022-09-09T13:03:31;7.07;;;3.63;;
7657;SDS011;8462;53.156;8.220;2022-09-09T13:09:02;5.47;;;3.83;;
7657;SDS011;8462;53.156;8.220;2022-09-09T13:11:30;4.17;;;3.77;;
7657;SDS011;8462;53.156;8.220;2022-09-09T13:14:03;6.33;;;4.00;;
7657;SDS011;8462;53.156;8.220;2022-09-09T13:16:39;11.53;;;4.87;;
7657;SDS011;8462;53.156;8.220;2022-09-09T13:19:15;6.83;;;4.33;;
7657;SDS011;8462;53.156;8.220;2022-09-09T13:21:50;10.57;;;4.27;;
7657;SDS011;8462;53.156;8.220;2022-09-09T13:24:28;4.73;;;3.90;;
7657;SDS011;8462;53.156;8.220;2022-09-09T13:26:57;6.40;;;4.37;;
7657;SDS011;8462;53.156;8.220;2022-09-09T13:29:27;7.17;;;4.30;;
7657;SDS011;8462;53.156;8.220;2022-09-09T13:32:02;9.17;;;4.20;;
7657;SDS011;8462;53.156;8.220;2022-09-09T13:34:33;5.20;;;4.70;;
7657;SDS011;8462;53.156;8.220;2022-09-09T13:37:01;7.73;;;5.60;;
7657;SDS011;8462;53.156;8.220;2022-09-09T13:39:40;7.67;;;4.90;;
7657;SDS011;8462;53.156;8.220;2022-09-09T13:42:27;7.70;;;5.10;;
7657;SDS011;8462;53.156;8.220;2022-09-09T13:44:58;8.77;;;4.60;;
7657;SDS011;8462;53.156;8.220;2022-09-09T13:47:30;6.83;;;5.00;;
7657;SDS011;8462;53.156;8.220;2022-09-09T13:50:19;6.03;;;3.90;;
7657;SDS011;8462;53.156;8.220;2022-09-09T13:52:48;5.70;;;2.73;;
7657;SDS011;8462;53.156;8.220;2022-09-09T13:55:16;3.47;;;3.17;;
7657;SDS011;8462;53.156;8.220;2022-09-09T13:57:50;5.60;;;4.80;;
7657;SDS011;8462;53.156;8.220;2022-09-09T14:00:21;6.17;;;3.20;;
7657;SDS011;8462;53.156;8.220;2022-09-09T14:02:49;5.10;;;3.40;;
7657;SDS011;8462;53.156;8.220;2022-09-09T14:05:18;6.87;;;3.40;;
7657;SDS011;8462;53.156;8.220;2022-09-09T14:07:47;4.37;;;2.70;;
7657;SDS011;8462;53.156;8.220;2022-09-09T14:10:15;2.73;;;2.20;;
7657;SDS011;8462;53.156;8.220;2022-09-09T14:12:42;3.90;;;2.13;;
7657;SDS011;8462;53.156;8.220;2022-09-09T14:15:09;2.60;;;2.07;;
7657;SDS011;8462;53.156;8.220;2022-09-09T14:17:41;5.57;;;2.40;;
7657;SDS011;8462;53.156;8.220;2022-09-09T14:20:09;5.70;;;2.57;;
7657;SDS011;8462;53.156;8.220;2022-09-09T14:22:41;4.23;;;2.07;;
7657;SDS011;8462;53.156;8.220;2022-09-09T14:25:17;2.57;;;2.30;;
7657;SDS011;8462;53.156;8.220;2022-09-09T14:27:44;3.70;;;2.43;;
7657;SDS011;8462;53.156;8.220;2022-09-09T14:30:12;3.27;;;2.23;;
7657;SDS011;8462;53.156;8.220;2022-09-09T14:32:48;5.67;;;2.47;;
7657;SDS011;8462;53.156;8.220;2022-09-09T14:35:15;5.03;;;2.60;;
7657;SDS011;8462;53.156;8.220;2022-09-09T14:37:44;6.13;;;2.80;;
7657;SDS011;8462;53.156;8.220;2022-09-09T14:40:11;4.27;;;2.77;;
7657;SDS011;8462;53.156;8.220;2022-09-09T14:42:46;4.13;;;2.40;;
7657;SDS011;8462;53.156;8.220;2022-09-09T14:45:13;4.20;;;2.50;;
7657;SDS011;8462;53.156;8.220;2022-09-09T14:47:40;3.73;;;2.40;;
7657;SDS011;8462;53.156;8.220;2022-09-09T14:50:08;3.67;;;2.90;;
7657;SDS011;8462;53.156;8.220;2022-09-09T14:52:35;3.63;;;2.63;;
7657;SDS011;8462;53.156;8.220;2022-09-09T14:55:13;4.23;;;2.80;;
7657;SDS011;8462;53.156;8.220;2022-09-09T14:57:40;4.63;;;2.87;;
7657;SDS011;8462;53.156;8.220;2022-09-09T15:00:08;3.70;;;2.33;;
7657;SDS011;8462;53.156;8.220;2022-09-09T15:02:44;3.73;;;2.57;;
7657;SDS011;8462;53.156;8.220;2022-09-09T15:05:11;4.53;;;3.07;;
7657;SDS011;8462;53.156;8.220;2022-09-09T15:07:38;4.40;;;3.00;;
7657;SDS011;8462;53.156;8.220;2022-09-09T15:10:05;3.53;;;2.87;;
7657;SDS011;8462;53.156;8.220;2022-09-09T15:12:34;3.73;;;3.37;;
7657;SDS011;8462;53.156;8.220;2022-09-09T15:15:02;2.93;;;2.60;;
7657;SDS011;8462;53.156;8.220;2022-09-09T15:17:29;3.37;;;2.40;;
7657;SDS011;8462;53.156;8.220;2022-09-09T15:20:02;3.67;;;2.37;;
7657;SDS011;8462;53.156;8.220;2022-09-09T15:22:37;2.90;;;2.00;;
7657;SDS011;8462;53.156;8.220;2022-09-09T15:25:05;3.20;;;2.37;;
7657;SDS011;8462;53.156;8.220;2022-09-09T15:27:41;3.47;;;2.10;;
7657;SDS011;8462;53.156;8.220;2022-09-09T15:30:10;4.20;;;2.30;;
7657;SDS011;8462;53.156;8.220;2022-09-09T15:32:38;2.73;;;2.30;;
7657;SDS011;8462;53.156;8.220;2022-09-09T15:35:05;3.47;;;2.00;;
7657;SDS011;8462;53.156;8.220;2022-09-09T15:37:32;3.87;;;2.30;;
7657;SDS011;8462;53.156;8.220;2022-09-09T15:40:02;4.07;;;2.10;;
7657;SDS011;8462;53.156;8.220;2022-09-09T15:42:30;3.73;;;2.40;;
7657;SDS011;8462;53.156;8.220;2022-09-09T15:44:58;4.50;;;3.03;;
7657;SDS011;8462;53.156;8.220;2022-09-09T15:47:25;3.43;;;2.37;;
7657;SDS011;8462;53.156;8.220;2022-09-09T15:49:54;6.23;;;3.17;;
7657;SDS011;8462;53.156;8.220;2022-09-09T15:52:21;3.17;;;2.60;;
7657;SDS011;8462;53.156;8.220;2022-09-09T15:54:48;4.90;;;2.53;;
7657;SDS011;8462;53.156;8.220;2022-09-09T15:57:17;3.30;;;2.60;;
7657;SDS011;8462;53.156;8.220;2022-09-09T15:59:44;3.33;;;2.33;;
7657;SDS011;8462;53.156;8.220;2022-09-09T16:02:12;7.03;;;2.33;;
7657;SDS011;8462;53.156;8.220;2022-09-09T16:04:46;3.33;;;2.70;;
7657;SDS011;8462;53.156;8.220;2022-09-09T16:07:13;3.13;;;2.83;;
7657;SDS011;8462;53.156;8.220;2022-09-09T16:09:40;3.57;;;2.20;;
7657;SDS011;8462;53.156;8.220;2022-09-09T16:12:17;4.70;;;2.80;;
7657;SDS011;8462;53.156;8.220;2022-09-09T16:14:44;4.40;;;3.27;;
7657;SDS011;8462;53.156;8.220;2022-09-09T16:17:12;5.37;;;2.73;;
7657;SDS011;8462;53.156;8.220;2022-09-09T16:19:45;3.87;;;2.40;;
7657;SDS011;8462;53.156;8.220;2022-09-09T16:22:12;3.40;;;2.40;;
7657;SDS011;8462;53.156;8.220;2022-09-09T16:24:40;7.30;;;2.70;;